Time;durP1;ratioP1;P1;durP2;ratioP2;P2;SDS_P1;SDS_P2;PMS_P1;PMS_P2;Temp;Humidity;BMP_temperature;BMP_pressure;BME280_temperature;BME280_humidity;BME280_pressure;Samples;Min_cycle;Max_cycle;Signal;HPM_P1;HPM_P2
2021/12/23 00:00:57;;;;;;;29.55;13.35;;;2.00;99.90;;;;;;4954483;29;20105;-68
2021/12/23 00:03:23;;;;;;;27.95;12.50;;;2.00;99.90;;;;;;4954572;29;20027;-68
2021/12/23 00:05:49;;;;;;;25.05;11.77;;;2.00;99.90;;;;;;4954673;29;20086;-68
2021/12/23 00:08:14;;;;;;;28.35;11.35;;;2.00;99.90;;;;;;4954779;29;20019;-69
2021/12/23 00:10:40;;;;;;;25.30;12.32;;;2.10;99.90;;;;;;4954602;29;20039;-68
2021/12/23 00:13:07;;;;;;;26.45;12.88;;;2.10;99.90;;;;;;4954282;29;20100;-68
2021/12/23 00:18:40;;;;;;;28.00;12.45;;;2.10;99.90;;;;;;4954538;29;20042;-68
2021/12/23 00:23:44;;;;;;;25.20;11.95;;;2.10;99.90;;;;;;4954499;29;20082;-68
2021/12/23 00:26:10;;;;;;;26.38;11.32;;;2.20;99.90;;;;;;4954538;29;20031;-68
2021/12/23 00:28:36;;;;;;;23.08;10.80;;;2.30;99.90;;;;;;4954501;29;20475;-68
2021/12/23 00:31:03;;;;;;;21.67;8.32;;;2.30;99.90;;;;;;4954221;29;20035;-69
2021/12/23 00:33:29;;;;;;;26.35;11.50;;;2.30;99.90;;;;;;4954481;29;20034;-68
2021/12/23 00:35:56;;;;;;;27.20;11.32;;;2.20;99.90;;;;;;4954167;29;20031;-68
2021/12/23 00:38:30;;;;;;;28.25;11.68;;;2.30;99.90;;;;;;4954405;29;20034;-68
2021/12/23 00:40:58;;;;;;;25.50;11.85;;;2.30;99.90;;;;;;4954450;29;20070;-68
2021/12/23 00:43:24;;;;;;;18.30;8.20;;;2.40;99.90;;;;;;4954287;29;20043;-68
2021/12/23 00:45:50;;;;;;;19.42;7.53;;;2.30;99.90;;;;;;4954153;29;20383;-68
2021/12/23 00:48:17;;;;;;;23.73;9.60;;;2.30;99.90;;;;;;4954208;29;20023;-68
2021/12/23 00:50:43;;;;;;;24.45;11.23;;;2.20;99.90;;;;;;4954140;29;20031;-68
2021/12/23 00:53:10;;;;;;;22.50;11.02;;;2.30;99.90;;;;;;4954217;29;20035;-68
2021/12/23 00:55:37;;;;;;;26.02;12.57;;;2.30;99.90;;;;;;4954225;29;20033;-68
2021/12/23 00:58:03;;;;;;;26.48;11.05;;;2.30;99.90;;;;;;4952836;29;20035;-69
2021/12/23 01:00:29;;;;;;;23.10;11.18;;;2.30;99.90;;;;;;4954461;28;20051;-69
2021/12/23 01:02:58;;;;;;;26.70;11.68;;;2.20;99.90;;;;;;4957784;29;20533;-68
2021/12/23 01:05:26;;;;;;;32.03;12.38;;;2.20;99.90;;;;;;4957475;29;20099;-69
2021/12/23 01:07:51;;;;;;;26.50;11.52;;;2.20;99.90;;;;;;4956363;29;20031;-69
2021/12/23 01:10:17;;;;;;;25.58;11.95;;;2.20;99.90;;;;;;4957748;29;20042;-68
2021/12/23 01:12:50;;;;;;;23.52;11.20;;;2.10;99.90;;;;;;4957542;29;20041;-68
2021/12/23 01:17:56;;;;;;;25.95;12.20;;;2.10;99.90;;;;;;4957360;29;20039;-68
2021/12/23 01:20:29;;;;;;;26.63;11.60;;;2.00;99.90;;;;;;4957745;29;20031;-68
2021/12/23 01:23:02;;;;;;;26.85;11.13;;;2.00;99.90;;;;;;4957544;29;20106;-68
2021/12/23 01:25:28;;;;;;;27.60;12.45;;;1.90;99.90;;;;;;4957568;29;20035;-68
2021/12/23 01:27:54;;;;;;;27.63;12.57;;;2.00;99.90;;;;;;4956159;29;20090;-68
2021/12/23 01:30:21;;;;;;;27.48;12.02;;;1.90;99.90;;;;;;4957268;29;20082;-67
2021/12/23 01:32:48;;;;;;;24.75;12.35;;;1.90;99.90;;;;;;4957341;29;20077;-67
2021/12/23 01:35:15;;;;;;;25.50;11.05;;;1.80;99.90;;;;;;4957366;29;20118;-68
2021/12/23 01:37:41;;;;;;;24.52;8.98;;;1.80;99.90;;;;;;4957175;29;20042;-68
2021/12/23 01:40:09;;;;;;;20.05;9.35;;;1.80;99.90;;;;;;4957073;29;20035;-68
2021/12/23 01:42:35;;;;;;;27.80;11.60;;;1.80;99.90;;;;;;4956919;29;20095;-68
2021/12/23 01:45:02;;;;;;;25.30;10.68;;;1.70;99.90;;;;;;4957037;29;20035;-68
2021/12/23 01:47:29;;;;;;;24.50;10.70;;;1.70;99.90;;;;;;4956778;29;20476;-68
2021/12/23 01:49:55;;;;;;;25.65;11.50;;;1.60;99.90;;;;;;4957286;29;20035;-68
2021/12/23 01:52:21;;;;;;;24.33;10.88;;;1.70;99.90;;;;;;4956924;29;20031;-68
2021/12/23 01:54:46;;;;;;;22.88;9.48;;;1.60;99.90;;;;;;4956793;29;20085;-68
2021/12/23 01:57:13;;;;;;;26.55;11.25;;;1.70;99.90;;;;;;4957078;29;20054;-68
2021/12/23 01:59:39;;;;;;;26.52;12.50;;;1.70;99.90;;;;;;4956454;29;20043;-68
2021/12/23 02:02:05;;;;;;;26.02;11.55;;;1.80;99.90;;;;;;4956699;29;20035;-68
2021/12/23 02:04:31;;;;;;;20.33;9.07;;;1.80;99.90;;;;;;4939348;29;20031;-68
2021/12/23 02:06:56;;;;;;;26.65;10.73;;;1.80;99.90;;;;;;4956995;29;20055;-67
2021/12/23 02:09:22;;;;;;;26.35;11.93;;;1.80;99.90;;;;;;4939493;29;20122;-67
2021/12/23 02:11:48;;;;;;;24.55;11.43;;;1.80;99.90;;;;;;4955325;29;20078;-67
2021/12/23 02:14:13;;;;;;;25.05;10.27;;;1.80;99.90;;;;;;4955337;28;20102;-68
2021/12/23 02:16:39;;;;;;;25.55;11.10;;;1.80;99.90;;;;;;4956572;29;20571;-67
2021/12/23 02:19:17;;;;;;;19.00;9.48;;;1.80;99.90;;;;;;4955147;29;20032;-68
2021/12/23 02:21:47;;;;;;;25.67;12.63;;;1.80;99.90;;;;;;4956300;29;20028;-68
2021/12/23 02:24:14;;;;;;;25.08;10.50;;;1.80;99.90;;;;;;4956389;29;20031;-68
2021/12/23 02:26:41;;;;;;;25.23;10.88;;;1.70;99.90;;;;;;4956150;29;20031;-68
2021/12/23 02:29:07;;;;;;;24.83;11.25;;;1.80;99.90;;;;;;4956275;29;20106;-68
2021/12/23 02:31:33;;;;;;;15.73;7.85;;;1.70;99.90;;;;;;4956267;29;20027;-68
2021/12/23 02:34:00;;;;;;;27.40;12.38;;;1.70;99.90;;;;;;4956265;29;20464;-68
2021/12/23 02:36:26;;;;;;;26.75;12.52;;;1.70;99.90;;;;;;4956554;29;20106;-69
2021/12/23 02:38:53;;;;;;;29.08;12.52;;;1.80;99.90;;;;;;4956074;29;20127;-68
2021/12/23 02:41:19;;;;;;;23.13;10.75;;;1.80;99.90;;;;;;4955759;29;20032;-68
2021/12/23 02:43:45;;;;;;;24.90;12.27;;;1.80;99.90;;;;;;4956382;29;20483;-68
2021/12/23 02:46:11;;;;;;;26.15;12.27;;;1.80;99.90;;;;;;4938867;29;20077;-68
2021/12/23 02:48:37;;;;;;;28.15;13.00;;;1.80;99.90;;;;;;4955856;29;20027;-68
2021/12/23 02:51:09;;;;;;;28.75;13.40;;;1.80;99.90;;;;;;4955938;29;20031;-68
2021/12/23 02:53:35;;;;;;;;;;;1.80;99.90;;;;;;4956096;29;20038;-68
2021/12/23 02:56:04;;;;;;;21.98;10.45;;;1.80;99.90;;;;;;4955713;29;19928;-68
2021/12/23 02:58:29;;;;;;;26.67;13.18;;;1.80;99.90;;;;;;4955505;28;20059;-68
2021/12/23 03:00:59;;;;;;;24.90;11.07;;;1.80;99.90;;;;;;4956022;29;20399;-68
2021/12/23 03:03:25;;;;;;;28.33;11.60;;;1.80;99.90;;;;;;4955516;29;20038;-68
2021/12/23 03:05:54;;;;;;;28.05;11.98;;;1.80;99.90;;;;;;4954209;29;20082;-67
2021/12/23 03:08:31;;;;;;;31.13;15.07;;;1.80;99.90;;;;;;4937817;29;20059;-68
2021/12/23 03:10:57;;;;;;;27.67;13.45;;;1.80;99.90;;;;;;4955178;29;20336;-68
2021/12/23 03:13:23;;;;;;;29.77;15.13;;;1.90;99.90;;;;;;4955318;29;20038;-68
2021/12/23 03:15:48;;;;;;;26.75;12.80;;;1.90;99.90;;;;;;4955280;29;20071;-68
2021/12/23 03:18:14;;;;;;;30.67;14.32;;;2.00;99.90;;;;;;4955445;29;20038;-68
2021/12/23 03:20:40;;;;;;;27.42;12.32;;;2.00;99.90;;;;;;4954964;29;20032;-68
2021/12/23 03:23:05;;;;;;;30.55;14.30;;;2.00;99.90;;;;;;4955361;29;20527;-68
2021/12/23 03:25:31;;;;;;;30.65;15.57;;;1.90;99.90;;;;;;4955455;28;20265;-68
2021/12/23 03:27:57;;;;;;;33.63;15.70;;;1.90;99.90;;;;;;4955346;29;20058;-68
2021/12/23 03:30:23;;;;;;;36.53;17.17;;;1.90;99.90;;;;;;4955049;29;20066;-68
2021/12/23 03:32:49;;;;;;;37.08;16.92;;;1.90;99.90;;;;;;4954888;29;20031;-68
2021/12/23 03:35:16;;;;;;;34.67;18.58;;;1.90;99.90;;;;;;4954809;29;20050;-68
2021/12/23 03:37:42;;;;;;;38.97;17.60;;;1.90;99.90;;;;;;4955144;29;20031;-68
2021/12/23 03:40:09;;;;;;;39.92;17.60;;;2.00;99.90;;;;;;4955000;29;20031;-68
2021/12/23 03:42:35;;;;;;;44.08;19.00;;;2.00;99.90;;;;;;4955094;29;20099;-68
2021/12/23 03:45:01;;;;;;;46.08;21.02;;;2.00;99.90;;;;;;4954780;29;20023;-68
2021/12/23 03:47:26;;;;;;;36.97;17.92;;;1.90;99.90;;;;;;4955093;29;20030;-68
2021/12/23 03:49:52;;;;;;;40.47;20.23;;;1.90;99.90;;;;;;4955007;29;20378;-68
2021/12/23 03:52:17;;;;;;;42.22;19.45;;;1.80;99.90;;;;;;4953713;29;20027;-68
2021/12/23 03:54:43;;;;;;;41.55;18.92;;;1.70;99.90;;;;;;4954797;29;20386;-68
2021/12/23 03:57:09;;;;;;;38.88;16.65;;;1.70;99.90;;;;;;4954888;29;20037;-67
2021/12/23 03:59:34;;;;;;;42.42;19.00;;;1.70;99.90;;;;;;4954718;29;20062;-67
2021/12/23 04:02:00;;;;;;;42.90;18.08;;;1.60;99.90;;;;;;4954485;29;20150;-68
2021/12/23 04:04:26;;;;;;;41.35;19.70;;;1.60;99.90;;;;;;4954222;29;20086;-69
2021/12/23 04:06:52;;;;;;;42.00;18.05;;;1.60;99.90;;;;;;4954427;29;20031;-68
2021/12/23 04:09:19;;;;;;;44.42;20.38;;;1.60;99.90;;;;;;4954610;29;20023;-68
2021/12/23 04:11:44;;;;;;;42.75;19.73;;;1.60;99.90;;;;;;4954386;29;20086;-68
2021/12/23 04:14:10;;;;;;;35.97;17.38;;;1.60;99.90;;;;;;4954444;29;20043;-68
2021/12/23 04:16:35;;;;;;;42.97;20.70;;;1.60;99.90;;;;;;4953309;29;20039;-68
2021/12/23 04:19:06;;;;;;;44.28;21.40;;;1.70;99.90;;;;;;4954119;29;20027;-68
2021/12/23 04:21:32;;;;;;;48.47;22.13;;;1.70;99.90;;;;;;4954389;29;20372;-68
2021/12/23 04:23:57;;;;;;;38.85;16.63;;;1.70;99.90;;;;;;4954307;29;20031;-68
2021/12/23 04:26:23;;;;;;;45.88;22.40;;;1.70;99.90;;;;;;4954535;29;20107;-68
2021/12/23 04:28:49;;;;;;;57.53;25.70;;;1.70;99.90;;;;;;4953104;29;20391;-68
2021/12/23 04:31:18;;;;;;;44.35;21.08;;;1.70;99.90;;;;;;4954307;29;20023;-68
2021/12/23 04:33:49;;;;;;;46.88;21.10;;;1.70;99.90;;;;;;4953919;29;20035;-68
2021/12/23 04:36:15;;;;;;;59.80;26.27;;;1.70;99.90;;;;;;4955938;28;20463;-68
2021/12/23 04:38:42;;;;;;;60.92;28.30;;;1.70;99.90;;;;;;4958506;29;20261;-68
2021/12/23 04:41:09;;;;;;;42.38;20.42;;;1.70;99.90;;;;;;4958597;29;20037;-68
2021/12/23 04:43:34;;;;;;;65.18;27.05;;;1.70;99.90;;;;;;4958346;29;20027;-68
2021/12/23 04:46:00;;;;;;;66.15;26.92;;;1.80;99.90;;;;;;4957844;29;20491;-68
2021/12/23 04:48:28;;;;;;;75.28;29.77;;;1.80;99.90;;;;;;4958161;29;20430;-68
2021/12/23 04:50:54;;;;;;;76.85;30.77;;;1.80;99.90;;;;;;4957885;29;20051;-68
2021/12/23 04:53:19;;;;;;;73.88;32.60;;;1.80;99.90;;;;;;4958249;29;20387;-68
2021/12/23 04:55:45;;;;;;;60.38;27.42;;;1.90;99.90;;;;;;4957761;29;20046;-68
2021/12/23 04:58:11;;;;;;;56.63;23.15;;;1.90;99.90;;;;;;4957936;28;20031;-68
2021/12/23 05:00:36;;;;;;;62.47;28.13;;;1.90;99.90;;;;;;4957620;29;20028;-68
2021/12/23 05:03:02;;;;;;;66.80;29.08;;;1.90;99.90;;;;;;4957912;29;20027;-68
2021/12/23 05:05:28;;;;;;;77.00;30.35;;;1.90;99.90;;;;;;4957909;29;20090;-68
2021/12/23 05:07:54;;;;;;;74.80;31.38;;;1.90;99.90;;;;;;4957625;29;20024;-68
2021/12/23 05:10:20;;;;;;;66.05;25.88;;;1.90;99.90;;;;;;4957811;29;20455;-68
2021/12/23 05:12:47;;;;;;;78.55;33.35;;;1.90;99.90;;;;;;4957472;29;20506;-68
2021/12/23 05:15:18;;;;;;;75.78;32.72;;;1.90;99.90;;;;;;4957367;29;20104;-68
2021/12/23 05:17:44;;;;;;;64.88;30.05;;;1.90;99.90;;;;;;4957769;29;20478;-69
2021/12/23 05:20:12;;;;;;;66.57;26.73;;;1.90;99.90;;;;;;4957523;29;20027;-69
2021/12/23 05:22:37;;;;;;;82.20;32.92;;;1.90;99.90;;;;;;4957417;29;20027;-68
2021/12/23 05:25:05;;;;;;;81.88;33.60;;;1.80;99.90;;;;;;4957310;29;20494;-69
2021/12/23 05:27:30;;;;;;;76.95;33.63;;;1.90;99.90;;;;;;4957362;29;20131;-68
2021/12/23 05:29:56;;;;;;;77.78;31.63;;;1.90;99.90;;;;;;4955956;29;20063;-69
2021/12/23 05:32:22;;;;;;;71.53;27.63;;;1.90;99.90;;;;;;4957513;29;20421;-69
2021/12/23 05:34:48;;;;;;;77.47;31.35;;;1.90;99.90;;;;;;4957338;29;20557;-68
2021/12/23 05:37:13;;;;;;;72.75;27.75;;;1.90;99.90;;;;;;4957283;29;20430;-68
2021/12/23 05:39:39;;;;;;;74.93;28.27;;;1.80;99.90;;;;;;4956992;29;20107;-68
2021/12/23 05:42:05;;;;;;;72.88;29.70;;;1.80;99.90;;;;;;4957325;29;20463;-69
2021/12/23 05:44:30;;;;;;;69.72;29.60;;;1.80;99.90;;;;;;4956981;29;20388;-69
2021/12/23 05:46:56;;;;;;;82.63;31.55;;;1.80;99.90;;;;;;4956746;28;20042;-69
2021/12/23 05:49:22;;;;;;;72.18;30.45;;;1.80;99.90;;;;;;4939116;29;20031;-69
2021/12/23 05:51:48;;;;;;;76.10;31.88;;;1.80;99.90;;;;;;4956971;29;20027;-69
2021/12/23 05:54:13;;;;;;;80.57;33.03;;;1.80;99.90;;;;;;4956650;29;20039;-69
2021/12/23 05:56:39;;;;;;;78.57;31.83;;;2.00;99.90;;;;;;4956733;29;20035;-69
2021/12/23 05:59:05;;;;;;;80.97;33.05;;;2.10;99.90;;;;;;4956722;28;20381;-69
2021/12/23 06:01:31;;;;;;;73.57;29.10;;;2.10;99.90;;;;;;4957070;29;20471;-68
2021/12/23 06:03:57;;;;;;;53.33;22.55;;;2.10;99.90;;;;;;4955795;29;20061;-68
2021/12/23 06:06:22;;;;;;;66.45;26.52;;;2.10;99.90;;;;;;4939672;29;20031;-69
2021/12/23 06:08:48;;;;;;;80.78;32.72;;;2.00;99.90;;;;;;4957146;29;20039;-68
2021/12/23 06:11:14;;;;;;;73.75;27.83;;;2.00;99.90;;;;;;4956848;29;20034;-68
2021/12/23 06:13:39;;;;;;;73.03;30.73;;;2.00;99.90;;;;;;4956478;29;20110;-69
2021/12/23 06:16:05;;;;;;;68.60;26.73;;;2.00;99.90;;;;;;4955562;29;20074;-69
2021/12/23 06:18:31;;;;;;;67.53;26.90;;;2.00;99.90;;;;;;4956509;29;20451;-69
2021/12/23 06:20:56;;;;;;;73.95;29.95;;;2.00;99.90;;;;;;4956546;29;20031;-69
2021/12/23 06:23:22;;;;;;;57.97;23.45;;;2.00;99.90;;;;;;4956514;29;20035;-68
2021/12/23 06:25:47;;;;;;;54.15;20.48;;;2.00;99.90;;;;;;4956448;29;20054;-69
2021/12/23 06:28:13;;;;;;;50.00;23.27;;;1.90;99.90;;;;;;4956337;29;20104;-68
2021/12/23 06:30:39;;;;;;;77.50;31.33;;;1.90;99.90;;;;;;4956804;29;20114;-68
2021/12/23 06:33:05;;;;;;;78.05;29.42;;;1.90;99.90;;;;;;4956361;29;20027;-68
2021/12/23 06:35:31;;;;;;;75.90;29.02;;;1.80;99.90;;;;;;4956803;29;20031;-68
2021/12/23 06:38:02;;;;;;;81.40;30.27;;;1.80;99.90;;;;;;4956442;29;20023;-68
2021/12/23 06:40:28;;;;;;;60.17;22.70;;;1.80;99.90;;;;;;4956478;29;20023;-68
2021/12/23 06:42:54;;;;;;;72.68;29.77;;;1.80;99.90;;;;;;4956173;29;20037;-67
2021/12/23 06:45:20;;;;;;;54.00;21.98;;;1.80;99.90;;;;;;4956244;29;20031;-68
2021/12/23 06:47:45;;;;;;;77.95;31.30;;;1.80;99.90;;;;;;4956282;29;20102;-68
2021/12/23 06:50:12;;;;;;;73.75;28.20;;;1.80;99.90;;;;;;4956235;29;20027;-67
2021/12/23 06:52:39;;;;;;;73.50;28.67;;;1.80;99.90;;;;;;4956161;29;20094;-67
2021/12/23 06:55:08;;;;;;;74.65;29.85;;;1.80;99.90;;;;;;4956025;29;20035;-67
2021/12/23 06:57:35;;;;;;;68.32;24.02;;;1.70;99.90;;;;;;4955648;29;20027;-68
2021/12/23 07:00:00;;;;;;;73.30;28.77;;;1.70;99.90;;;;;;4955333;28;20098;-68
2021/12/23 07:02:26;;;;;;;74.20;29.35;;;1.70;99.90;;;;;;4955555;29;20023;-68
2021/12/23 07:04:52;;;;;;;70.90;26.13;;;1.70;99.90;;;;;;4955851;29;20028;-68
2021/12/23 07:07:29;;;;;;;66.70;26.05;;;1.70;99.90;;;;;;4955906;29;20039;-68
2021/12/23 07:09:55;;;;;;;62.97;25.98;;;1.70;99.90;;;;;;4955351;29;20031;-68
2021/12/23 07:12:22;;;;;;;78.25;28.10;;;1.60;99.90;;;;;;4956001;29;20482;-67
2021/12/23 07:14:48;;;;;;;62.50;23.80;;;1.60;99.90;;;;;;4955773;29;20047;-68
2021/12/23 07:17:14;;;;;;;52.17;21.35;;;1.60;99.90;;;;;;4955637;29;20028;-68
2021/12/23 07:19:40;;;;;;;75.68;27.60;;;1.50;99.90;;;;;;4951709;28;20024;-69
2021/12/23 07:22:05;;;;;;;74.03;28.67;;;1.50;99.90;;;;;;4946417;28;20111;-69
2021/12/23 07:24:31;;;;;;;63.00;20.88;;;1.50;99.90;;;;;;4951340;28;20502;-69
2021/12/23 07:26:57;;;;;;;60.47;23.05;;;1.40;99.90;;;;;;4955108;28;20027;-69
2021/12/23 07:29:23;;;;;;;65.05;25.23;;;1.40;99.90;;;;;;4951283;28;20042;-69
2021/12/23 07:31:48;;;;;;;65.20;23.80;;;1.40;99.90;;;;;;4954748;28;20471;-70
2021/12/23 07:34:14;;;;;;;63.22;23.17;;;1.40;99.90;;;;;;4954716;29;20045;-69
2021/12/23 07:36:41;;;;;;;75.78;28.73;;;1.40;99.90;;;;;;4954568;28;20506;-70
2021/12/23 07:39:09;;;;;;;66.57;25.30;;;1.40;99.90;;;;;;4954302;29;20070;-70
2021/12/23 07:41:35;;;;;;;56.10;23.98;;;1.40;99.90;;;;;;4954181;28;20992;-70
2021/12/23 07:44:06;;;;;;;62.03;22.75;;;1.40;99.90;;;;;;4954501;28;20077;-70
2021/12/23 07:46:35;;;;;;;67.83;26.03;;;1.50;99.90;;;;;;4954785;28;20171;-70
2021/12/23 07:49:02;;;;;;;82.03;27.20;;;1.50;99.90;;;;;;4954866;29;20387;-70
2021/12/23 07:51:27;;;;;;;78.78;29.42;;;1.50;99.90;;;;;;4954931;29;20097;-71
2021/12/23 07:53:54;;;;;;;68.78;22.85;;;1.50;99.90;;;;;;4954869;29;20472;-71
2021/12/23 07:56:21;;;;;;;56.92;23.20;;;1.50;99.90;;;;;;4954204;29;20027;-71
2021/12/23 07:58:46;;;;;;;79.07;28.45;;;1.50;99.90;;;;;;4954881;29;20059;-71
2021/12/23 08:01:12;;;;;;;61.85;22.83;;;1.50;99.90;;;;;;4954682;29;20042;-72
2021/12/23 08:03:38;;;;;;;88.82;28.08;;;1.50;99.90;;;;;;4954493;29;20099;-71
2021/12/23 08:06:04;;;;;;;63.83;24.50;;;1.50;99.90;;;;;;4954475;29;20027;-71
2021/12/23 08:08:30;;;;;;;66.45;25.80;;;1.60;99.90;;;;;;4954614;29;20090;-72
2021/12/23 08:10:56;;;;;;;75.75;27.50;;;1.60;99.90;;;;;;4953878;28;20020;-72
2021/12/23 08:13:21;;;;;;;50.58;21.60;;;1.60;99.90;;;;;;4954531;29;20027;-72
2021/12/23 08:15:47;;;;;;;57.90;22.02;;;1.60;99.90;;;;;;4954463;29;20031;-72
2021/12/23 08:18:13;;;;;;;61.67;22.75;;;1.70;99.90;;;;;;4954518;29;20439;-72
2021/12/23 08:20:39;;;;;;;52.65;20.77;;;1.70;99.90;;;;;;4951788;28;20059;-72
2021/12/23 08:23:05;;;;;;;71.38;25.98;;;1.60;99.90;;;;;;4953870;29;20470;-72
2021/12/23 08:25:31;;;;;;;60.20;24.02;;;1.60;99.90;;;;;;4953884;28;20019;-71
2021/12/23 08:27:57;;;;;;;56.05;20.65;;;1.60;99.90;;;;;;4954217;29;20031;-73
2021/12/23 08:30:23;;;;;;;47.25;23.52;;;1.60;99.90;;;;;;4950971;28;20036;-72
2021/12/23 08:32:50;;;;;;;69.28;24.77;;;1.60;99.90;;;;;;4944198;28;20513;-73
2021/12/23 08:35:17;;;;;;;65.72;20.50;;;1.50;99.90;;;;;;4950630;29;20031;-72
2021/12/23 08:37:47;;;;;;;53.80;23.08;;;1.50;99.90;;;;;;4954565;28;20040;-73
2021/12/23 08:40:20;;;;;;;81.55;28.42;;;1.50;99.90;;;;;;4952613;29;20058;-72
2021/12/23 08:42:47;;;;;;;64.07;25.42;;;1.50;99.90;;;;;;4937401;29;20062;-73
2021/12/23 08:45:13;;;;;;;75.97;27.92;;;1.50;99.90;;;;;;4953691;29;20395;-72
2021/12/23 08:47:39;;;;;;;76.78;28.58;;;1.50;99.90;;;;;;4953677;28;20027;-72
2021/12/23 08:50:07;;;;;;;55.90;22.20;;;1.70;99.90;;;;;;4954130;29;21089;-72
2021/12/23 08:52:33;;;;;;;65.22;24.02;;;1.70;99.90;;;;;;4939933;29;20039;-73
2021/12/23 08:54:59;;;;;;;60.38;22.67;;;1.70;99.90;;;;;;4953351;29;20557;-72
2021/12/23 08:57:25;;;;;;;43.05;18.63;;;1.70;99.90;;;;;;4953539;28;20031;-72
2021/12/23 08:59:53;;;;;;;50.70;19.63;;;1.70;99.90;;;;;;4953680;29;20130;-73
2021/12/23 09:02:19;;;;;;;68.68;24.45;;;1.70;99.90;;;;;;4953043;28;20074;-73
2021/12/23 09:04:45;;;;;;;68.13;27.33;;;1.70;99.90;;;;;;4949477;29;20119;-72
2021/12/23 09:10:10;;;;;;;65.13;23.98;;;1.80;99.90;;;;;;4948135;28;20078;-71
2021/12/23 09:12:36;;;;;;;73.43;27.10;;;1.80;99.90;;;;;;4953709;28;20047;-72
2021/12/23 09:15:03;;;;;;;58.60;23.05;;;1.80;99.90;;;;;;4953287;28;20039;-72
2021/12/23 09:17:29;;;;;;;67.85;25.20;;;1.80;99.90;;;;;;4953413;28;20100;-72
2021/12/23 09:19:55;;;;;;;71.03;27.42;;;1.80;99.90;;;;;;4952468;29;20031;-72
2021/12/23 09:22:20;;;;;;;71.05;25.08;;;1.80;99.90;;;;;;4955143;28;20094;-73
2021/12/23 09:24:47;;;;;;;61.92;22.10;;;1.90;99.90;;;;;;4957263;29;20038;-72
2021/12/23 09:27:26;;;;;;;66.28;24.48;;;1.90;99.90;;;;;;4955564;28;20039;-72
2021/12/23 09:35:06;;;;;;;62.10;21.23;;;2.10;99.90;;;;;;4956511;29;20467;-72
2021/12/23 09:37:32;;;;;;;49.42;19.52;;;2.20;99.90;;;;;;4956484;28;20090;-72
2021/12/23 09:39:58;;;;;;;63.58;24.60;;;2.20;99.90;;;;;;4956404;29;20031;-72
2021/12/23 09:42:30;;;;;;;72.80;24.58;;;2.10;99.90;;;;;;4956840;29;20027;-72
2021/12/23 09:45:00;;;;;;;60.97;23.05;;;2.10;99.90;;;;;;4957309;29;20039;-72
2021/12/23 09:47:29;;;;;;;66.03;25.15;;;2.20;99.90;;;;;;4957289;29;20031;-72
2021/12/23 09:49:56;;;;;;;71.47;25.85;;;2.20;99.90;;;;;;4957264;29;20081;-72
2021/12/23 09:52:23;;;;;;;66.20;26.30;;;2.20;99.90;;;;;;4955585;28;20506;-72
2021/12/23 09:54:52;;;;;;;51.97;21.05;;;2.30;99.90;;;;;;4956369;29;20050;-72
2021/12/23 09:57:18;;;;;;;62.22;23.75;;;2.30;99.90;;;;;;4956325;28;20051;-72
2021/12/23 09:59:43;;;;;;;66.53;25.40;;;2.20;99.90;;;;;;4956271;28;20098;-72
2021/12/23 10:02:10;;;;;;;67.57;25.33;;;2.20;99.90;;;;;;4956791;29;20023;-72
2021/12/23 10:04:36;;;;;;;60.55;21.33;;;2.20;99.90;;;;;;4956579;29;20061;-72
2021/12/23 10:07:01;;;;;;;54.33;22.13;;;2.20;99.90;;;;;;4956354;29;20464;-72
2021/12/23 10:09:44;;;;;;;49.33;19.25;;;2.20;99.90;;;;;;4956459;29;20035;-73
2021/12/23 10:37:14;;;;;;;56.00;21.73;;;2.40;99.90;;;;;;4956076;29;20034;-73
2021/12/23 10:39:48;;;;;;;57.33;20.10;;;2.40;99.90;;;;;;4956292;29;20081;-73
2021/12/23 10:42:21;;;;;;;60.88;22.75;;;2.40;99.90;;;;;;4956178;29;20034;-73
2021/12/23 10:44:53;;;;;;;53.20;21.70;;;2.40;99.90;;;;;;4956228;29;20079;-72
2021/12/23 10:47:29;;;;;;;;;;;2.50;99.90;;;;;;4956533;29;20031;-73
2021/12/23 10:49:59;;;;;;;58.35;21.92;;;2.50;99.90;;;;;;4944386;29;20001;-73
2021/12/23 10:52:30;;;;;;;65.70;24.95;;;2.60;99.90;;;;;;4942892;29;20023;-73
2021/12/23 11:00:18;;;;;;;59.67;22.90;;;2.70;99.90;;;;;;4955944;29;20119;-72
2021/12/23 11:03:51;;;;;;;59.03;23.13;;;2.80;99.90;;;;;;4954163;28;20039;-72
2021/12/23 11:06:27;;;;;;;60.92;23.65;;;2.90;99.90;;;;;;4951187;29;20472;-72
2021/12/23 11:12:11;;;;;;;58.28;23.15;;;3.10;99.90;;;;;;4955262;29;20030;-72
2021/12/23 11:40:04;;;;;;;56.50;22.98;;;3.80;99.90;;;;;;4932114;29;20591;-72
2021/12/23 11:42:40;;;;;;;50.50;18.73;;;3.80;99.90;;;;;;4942244;29;20037;-72
2021/12/23 11:45:06;;;;;;;53.65;22.08;;;3.80;99.90;;;;;;4953370;28;20079;-72
2021/12/23 11:47:32;;;;;;;54.20;22.13;;;3.90;99.90;;;;;;4951188;29;20507;-72
2021/12/23 11:49:58;;;;;;;52.75;21.20;;;4.00;99.90;;;;;;4953885;28;20031;-72
2021/12/23 11:52:24;;;;;;;45.30;19.10;;;4.10;99.90;;;;;;4944182;29;20100;-71
2021/12/23 11:54:50;;;;;;;56.33;21.25;;;4.20;99.90;;;;;;4953338;28;20145;-71
2021/12/23 11:57:21;;;;;;;55.38;23.23;;;4.30;99.90;;;;;;4953373;29;20023;-71
2021/12/23 12:00:09;;;;;;;49.80;20.95;;;4.40;99.90;;;;;;4953443;28;20054;-71
2021/12/23 12:02:34;;;;;;;49.40;21.38;;;4.50;99.90;;;;;;4953268;29;20023;-71
2021/12/23 12:05:06;;;;;;;53.85;20.92;;;4.60;99.90;;;;;;4953459;28;20031;-71
2021/12/23 12:07:31;;;;;;;48.15;21.25;;;4.70;99.90;;;;;;4955981;28;20082;-71
2021/12/23 12:10:07;;;;;;;40.17;16.50;;;4.70;99.90;;;;;;4953300;28;20479;-71
2021/12/23 12:12:35;;;;;;;48.45;19.95;;;4.80;99.90;;;;;;4953502;29;20027;-71
2021/12/23 12:15:04;;;;;;;45.22;20.05;;;4.90;99.90;;;;;;4951811;28;20043;-70
2021/12/23 12:17:33;;;;;;;50.67;21.13;;;4.80;99.90;;;;;;4953674;29;20027;-71
2021/12/23 12:20:20;;;;;;;49.08;21.33;;;4.90;99.90;;;;;;4954553;28;20098;-71
2021/12/23 12:22:49;;;;;;;47.22;19.33;;;4.90;99.90;;;;;;4954465;29;20034;-71
2021/12/23 12:25:26;;;;;;;47.53;21.10;;;4.90;99.90;;;;;;4944640;29;20032;-73
2021/12/23 12:27:55;;;;;;;48.30;19.15;;;4.90;99.90;;;;;;4953523;29;20035;-71
2021/12/23 12:30:41;;;;;;;51.08;20.52;;;4.90;99.90;;;;;;4950950;28;20391;-70
2021/12/23 12:33:27;;;;;;;43.00;17.58;;;4.90;99.90;;;;;;4952202;29;20051;-71
2021/12/23 12:36:02;;;;;;;52.45;20.63;;;4.90;99.90;;;;;;4923442;29;20412;-70
2021/12/23 12:38:41;;;;;;;47.63;20.13;;;4.80;99.90;;;;;;4957236;28;20175;-71
2021/12/23 12:41:25;;;;;;;53.33;21.10;;;4.90;99.90;;;;;;4951574;28;20024;-72
2021/12/23 12:44:28;;;;;;;42.72;18.67;;;4.90;99.90;;;;;;4953385;29;20074;-70
2021/12/23 12:49:29;;;;;;;42.72;18.30;;;4.90;99.90;;;;;;4950616;29;20362;-72
2021/12/23 12:52:19;;;;;;;46.78;20.63;;;4.90;99.90;;;;;;4952824;29;20063;-72
2021/12/23 12:54:53;;;;;;;41.67;17.65;;;5.00;99.90;;;;;;4954201;29;20047;-72
2021/12/23 12:57:23;;;;;;;46.67;18.75;;;5.00;99.90;;;;;;4955923;28;20043;-72
2021/12/23 12:59:51;;;;;;;41.22;18.17;;;5.00;99.90;;;;;;4957944;29;20039;-72
2021/12/23 13:02:31;;;;;;;48.15;19.42;;;5.00;99.90;;;;;;4956793;29;20411;-71
2021/12/23 13:05:01;;;;;;;45.00;18.88;;;5.00;99.90;;;;;;4957845;29;20031;-72
2021/12/23 13:07:35;;;;;;;46.30;20.02;;;5.00;99.90;;;;;;4956465;29;20058;-73
2021/12/23 13:10:07;;;;;;;50.08;21.15;;;5.10;99.90;;;;;;4956902;28;20023;-73
2021/12/23 13:12:44;;;;;;;49.33;20.35;;;5.20;99.90;;;;;;4937403;29;20035;-71
2021/12/23 13:15:19;;;;;;;47.38;20.65;;;5.30;99.90;;;;;;4957369;29;20046;-72
2021/12/23 13:18:08;;;;;;;45.45;18.95;;;5.20;99.90;;;;;;4957660;29;20456;-72
2021/12/23 13:20:47;;;;;;;46.08;19.80;;;5.30;99.90;;;;;;4957237;29;20041;-73
2021/12/23 13:23:23;;;;;;;49.95;20.05;;;5.30;99.90;;;;;;4940302;29;20501;-71
2021/12/23 13:25:55;;;;;;;50.83;22.42;;;5.40;99.90;;;;;;4957640;29;20097;-71
2021/12/23 13:28:27;;;;;;;47.83;21.08;;;5.50;99.90;;;;;;4957803;29;20031;-72
2021/12/23 13:30:53;;;;;;;51.63;22.27;;;5.50;99.90;;;;;;4957280;29;20114;-73
2021/12/23 13:33:19;;;;;;;46.70;22.13;;;5.50;99.90;;;;;;4956699;29;20670;-72
2021/12/23 13:35:45;;;;;;;47.75;22.35;;;5.50;99.90;;;;;;4957696;29;20059;-69
2021/12/23 13:38:33;;;;;;;50.78;22.45;;;5.50;99.90;;;;;;4957185;29;20110;-69
2021/12/23 13:41:23;;;;;;;42.63;18.38;;;5.60;99.90;;;;;;4957347;29;20028;-70
2021/12/23 13:43:50;;;;;;;52.08;22.52;;;5.60;99.90;;;;;;4957036;29;20111;-71
2021/12/23 13:46:16;;;;;;;45.08;20.98;;;5.60;99.90;;;;;;4957330;29;20035;-73
2021/12/23 13:48:51;;;;;;;51.08;22.90;;;5.60;99.90;;;;;;4957323;29;20027;-70
2021/12/23 13:51:20;;;;;;;56.67;23.73;;;5.70;99.90;;;;;;4957065;29;20027;-70
2021/12/23 13:53:46;;;;;;;49.92;22.98;;;5.70;99.90;;;;;;4956849;29;20039;-69
2021/12/23 13:56:13;;;;;;;55.08;24.52;;;5.80;99.90;;;;;;4957178;29;20384;-71
2021/12/23 13:58:39;;;;;;;51.60;23.40;;;5.80;99.90;;;;;;4956759;29;20094;-69
2021/12/23 14:01:05;;;;;;;54.22;23.55;;;5.80;99.90;;;;;;4957043;29;20027;-70